Time;durP1;ratioP1;P1;durP2;ratioP2;P2;SDS_P1;SDS_P2;PMS_P1;PMS_P2;Temp;Humidity;BMP_temperature;BMP_pressure;BME280_temperature;BME280_humidity;BME280_pressure;Samples;Min_cycle;Max_cycle;Signal;HPM_P1;HPM_P2
2021/05/03 00:01:45;;;;;;;10.57;6.15;;;;;;;5.70;71.51;98298.13;5051784;28;20021;-80
2021/05/03 00:04:10;;;;;;;11.60;7.13;;;;;;;5.70;71.64;98292.69;5050298;28;20108;-80
2021/05/03 00:06:35;;;;;;;8.43;4.85;;;;;;;5.74;72.80;98307.38;5048941;28;20052;-80
2021/05/03 00:09:01;;;;;;;11.40;7.50;;;;;;;5.66;72.61;98299.75;5050609;28;20029;-81
2021/05/03 00:11:26;;;;;;;10.25;7.03;;;;;;;5.64;73.19;98304.66;5051409;28;20027;-81
2021/05/03 00:13:51;;;;;;;8.02;5.15;;;;;;;5.60;73.21;98307.06;5051778;28;20493;-80
2021/05/03 00:16:17;;;;;;;9.38;6.45;;;;;;;5.55;73.39;98312.50;5050363;28;20500;-81
2021/05/03 00:18:42;;;;;;;8.77;5.70;;;;;;;5.51;73.72;98309.50;5050827;28;20397;-80
2021/05/03 00:21:08;;;;;;;11.43;6.93;;;;;;;5.53;73.61;98322.00;5050336;28;20111;-81
2021/05/03 00:23:33;;;;;;;12.10;6.68;;;;;;;5.51;73.40;98304.06;5046809;28;20113;-81
2021/05/03 00:25:58;;;;;;;8.07;5.25;;;;;;;5.48;74.05;98303.78;5051786;28;20027;-81
2021/05/03 00:28:24;;;;;;;8.20;5.28;;;;;;;5.48;73.77;98325.53;5051223;28;20029;-82
2021/05/03 00:30:49;;;;;;;11.65;6.70;;;;;;;5.48;73.75;98320.91;5047821;28;20816;-81
2021/05/03 00:33:15;;;;;;;7.88;4.82;;;;;;;5.47;73.75;98316.56;5050167;28;20087;-80
2021/05/03 00:35:40;;;;;;;8.82;5.13;;;;;;;5.46;73.02;98322.28;5045471;28;20057;-80
2021/05/03 00:38:06;;;;;;;8.23;5.82;;;;;;;5.46;73.19;98314.91;5047412;28;20057;-81
2021/05/03 00:40:32;;;;;;;9.00;5.20;;;;;;;5.44;73.42;98313.56;5051361;28;20024;-80
2021/05/03 00:42:57;;;;;;;7.43;5.45;;;;;;;5.43;73.34;98330.97;5051646;28;20103;-81
2021/05/03 00:45:23;;;;;;;6.38;4.65;;;;;;;5.43;73.64;98330.97;5049049;28;20120;-81
2021/05/03 00:47:49;;;;;;;7.68;5.22;;;;;;;5.42;72.73;98335.56;5049760;28;20109;-81
2021/05/03 00:50:17;;;;;;;5.63;4.10;;;;;;;5.43;73.38;98337.19;5050819;28;20496;-80
2021/05/03 00:52:42;;;;;;;7.30;4.32;;;;;;;5.43;72.72;98331.75;5048605;28;20057;-81
2021/05/03 00:55:08;;;;;;;6.88;4.57;;;;;;;5.43;72.90;98331.75;5049791;28;20056;-81
2021/05/03 00:57:34;;;;;;;6.88;4.68;;;;;;;5.44;72.89;98335.31;5050568;28;20036;-81
2021/05/03 01:00:00;;;;;;;5.60;3.95;;;;;;;5.45;72.83;98343.19;5050925;28;20028;-82
2021/05/03 01:02:25;;;;;;;14.25;5.80;;;;;;;5.50;72.37;98336.97;5048271;28;20025;-81
2021/05/03 01:04:51;;;;;;;5.75;4.40;;;;;;;5.54;72.59;98356.28;5049486;28;20024;-81
2021/05/03 01:07:16;;;;;;;6.50;4.90;;;;;;;5.54;72.87;98340.78;5048145;28;20378;-81
2021/05/03 01:09:42;;;;;;;7.22;4.35;;;;;;;5.58;72.31;98346.53;5050014;28;20029;-80
2021/05/03 01:12:08;;;;;;;7.35;4.85;;;;;;;5.57;72.07;98356.56;5049146;28;20527;-81
2021/05/03 01:14:34;;;;;;;26.98;10.35;;;;;;;5.62;72.28;98364.75;5043450;28;20033;-81
2021/05/03 01:16:59;;;;;;;79.05;20.25;;;;;;;5.64;72.57;98367.22;5038037;28;20050;-80
2021/05/03 01:19:26;;;;;;;22.88;9.98;;;;;;;5.66;72.40;98362.34;5048976;28;20086;-80
2021/05/03 01:21:51;;;;;;;27.90;13.88;;;;;;;5.67;72.14;98363.97;5052988;28;20178;-81
2021/05/03 01:24:18;;;;;;;105.53;44.95;;;;;;;5.68;71.97;98360.16;5049473;28;20532;-81
2021/05/03 01:26:44;;;;;;;56.90;18.88;;;;;;;5.71;71.74;98358.81;5047729;28;20048;-82
2021/05/03 01:29:10;;;;;;;43.30;14.35;;;;;;;5.70;72.22;98374.31;5046745;28;20092;-79
2021/05/03 01:31:36;;;;;;;36.22;11.63;;;;;;;5.72;72.16;98368.59;5047501;28;20017;-80
2021/05/03 01:34:06;;;;;;;9.18;5.40;;;;;;;5.72;71.78;98372.13;5048707;28;20021;-80
2021/05/03 01:36:37;;;;;;;7.10;3.53;;;;;;;5.70;72.18;98371.59;5049186;28;20021;-80
2021/05/03 01:39:05;;;;;;;6.55;4.50;;;;;;;5.71;72.28;98375.13;5047505;28;20028;-81
2021/05/03 01:41:31;;;;;;;5.65;4.28;;;;;;;5.71;72.13;98366.97;5049206;28;20182;-81
2021/05/03 01:43:56;;;;;;;7.25;4.80;;;;;;;5.73;72.29;98372.97;5050350;28;20064;-81
2021/05/03 01:46:22;;;;;;;6.95;4.78;;;;;;;5.78;72.25;98367.53;5049442;28;20033;-80
2021/05/03 01:48:48;;;;;;;8.45;5.38;;;;;;;5.80;71.79;98371.63;5050438;28;20025;-81
2021/05/03 01:51:14;;;;;;;7.25;4.97;;;;;;;5.84;71.54;98368.38;5049010;28;20036;-80
2021/05/03 01:53:39;;;;;;;8.10;4.75;;;;;;;5.77;72.09;98368.63;5049396;28;20032;-80
2021/05/03 01:56:05;;;;;;;5.85;4.07;;;;;;;5.75;71.79;98376.25;5049070;28;20029;-79
2021/05/03 01:58:30;;;;;;;7.15;5.20;;;;;;;5.76;72.42;98386.84;5050766;28;20481;-80
2021/05/03 02:01:00;;;;;;;7.70;5.68;;;;;;;5.77;72.32;98376.78;5051228;28;20029;-80
2021/05/03 02:03:27;;;;;;;7.75;5.25;;;;;;;5.81;71.88;98380.63;5047931;28;20104;-80
2021/05/03 02:05:53;;;;;;;8.80;6.25;;;;;;;5.78;72.15;98375.72;5047070;28;20033;-80
2021/05/03 02:08:20;;;;;;;8.18;5.95;;;;;;;5.79;72.18;98380.88;5048425;28;20489;-81
2021/05/03 02:10:46;;;;;;;10.18;5.78;;;;;;;5.79;71.70;98380.88;5044725;28;20029;-80
2021/05/03 02:13:12;;;;;;;7.30;5.07;;;;;;;5.82;71.83;98374.09;5041039;28;20037;-80
2021/05/03 02:15:38;;;;;;;8.93;6.00;;;;;;;5.81;72.28;98377.91;5044503;28;20033;-80
2021/05/03 02:18:03;;;;;;;9.00;5.57;;;;;;;5.80;71.73;98377.06;5049189;28;20480;-79
2021/05/03 02:20:29;;;;;;;9.95;6.15;;;;;;;5.81;71.95;98380.63;5047920;28;20025;-80
2021/05/03 02:22:54;;;;;;;12.13;7.05;;;;;;;5.80;72.26;98371.63;5043174;28;20096;-80
2021/05/03 02:25:20;;;;;;;11.10;7.25;;;;;;;5.83;72.37;98375.72;5040980;28;20041;-80
2021/05/03 02:27:45;;;;;;;10.05;6.03;;;;;;;5.86;72.15;98374.38;5042917;28;20024;-80
2021/05/03 02:30:11;;;;;;;10.80;6.82;;;;;;;5.87;72.38;98381.44;5047155;28;20499;-79
2021/05/03 02:32:37;;;;;;;13.65;8.73;;;;;;;5.92;72.19;98389.63;5040830;28;20779;-80
2021/05/03 02:35:11;;;;;;;11.18;7.45;;;;;;;5.96;72.16;98386.09;5039376;28;20033;-79
2021/05/03 02:37:37;;;;;;;9.57;5.70;;;;;;;6.01;72.05;98392.69;5043036;28;20091;-80
2021/05/03 02:40:04;;;;;;;8.55;6.20;;;;;;;6.04;72.10;98400.31;5036249;28;20026;-80
2021/05/03 02:42:30;;;;;;;9.63;6.35;;;;;;;6.01;72.46;98398.13;5039860;28;20079;-81
2021/05/03 02:44:55;;;;;;;11.20;7.20;;;;;;;5.96;72.42;98390.75;5039818;28;20029;-81
2021/05/03 02:47:20;;;;;;;10.55;6.82;;;;;;;5.91;72.22;98396.16;5051619;28;20036;-80
2021/05/03 02:49:46;;;;;;;10.27;6.88;;;;;;;5.86;72.26;98402.41;5045349;28;20029;-80
2021/05/03 02:52:11;;;;;;;11.80;7.53;;;;;;;5.78;72.02;98392.03;5044639;28;20025;-80
2021/05/03 02:54:37;;;;;;;13.60;7.65;;;;;;;5.73;71.91;98400.19;5051381;28;20029;-81
2021/05/03 02:57:03;;;;;;;9.57;6.55;;;;;;;5.66;72.57;98400.44;5052343;28;20104;-81
2021/05/03 02:59:28;;;;;;;12.00;8.13;;;;;;;5.61;72.43;98408.56;5053963;28;20033;-81
2021/05/03 03:01:54;;;;;;;10.52;7.20;;;;;;;5.57;72.04;98410.97;5054065;28;20027;-81
2021/05/03 03:04:20;;;;;;;9.45;6.93;;;;;;;5.53;72.28;98409.06;5052542;28;20078;-81
2021/05/03 03:06:45;;;;;;;12.80;7.38;;;;;;;5.50;72.51;98408.50;5051203;28;20021;-81
2021/05/03 03:09:10;;;;;;;10.77;7.32;;;;;;;5.54;72.62;98414.22;5052450;28;20025;-81
2021/05/03 03:11:36;;;;;;;12.07;7.88;;;;;;;5.56;72.88;98411.25;5051955;28;20736;-81
2021/05/03 03:14:03;;;;;;;10.32;6.68;;;;;;;5.54;73.32;98410.69;5051192;28;20021;-81
2021/05/03 03:16:30;;;;;;;14.25;9.13;;;;;;;5.51;73.45;98417.47;5051523;28;20060;-81
2021/05/03 03:18:58;;;;;;;10.18;7.18;;;;;;;5.49;73.27;98417.75;5051870;28;20044;-81
2021/05/03 03:21:24;;;;;;;13.02;8.10;;;;;;;5.51;72.82;98418.31;5051787;28;20033;-82
2021/05/03 03:23:50;;;;;;;9.88;7.13;;;;;;;5.57;73.15;98426.50;5044157;28;20491;-81
2021/05/03 03:26:16;;;;;;;9.50;6.43;;;;;;;5.63;73.41;98420.00;5046470;28;20443;-81
2021/05/03 03:28:41;;;;;;;11.77;7.18;;;;;;;5.64;73.05;98425.16;5053573;28;20064;-80
2021/05/03 03:31:07;;;;;;;10.75;7.40;;;;;;;5.68;72.80;98430.09;5045206;28;20466;-80
2021/05/03 03:33:32;;;;;;;13.43;7.78;;;;;;;5.71;72.96;98435.81;5046276;28;20397;-81
2021/05/03 03:35:57;;;;;;;13.55;8.45;;;;;;;5.71;73.13;98437.72;5039914;28;20026;-81
2021/05/03 03:38:23;;;;;;;13.30;8.60;;;;;;;5.73;73.37;98432.84;5047046;28;21735;-81
2021/05/03 03:40:48;;;;;;;12.85;7.50;;;;;;;5.73;72.67;98432.84;5048831;28;20100;-80
2021/05/03 03:43:14;;;;;;;11.02;7.03;;;;;;;5.76;72.75;98441.28;5039219;28;20060;-80
2021/05/03 03:45:39;;;;;;;10.07;6.22;;;;;;;5.75;72.12;98441.56;5045670;28;20033;-81
2021/05/03 03:48:06;;;;;;;11.00;6.80;;;;;;;5.76;72.51;98443.19;5049635;28;20028;-81
2021/05/03 03:50:31;;;;;;;11.20;6.70;;;;;;;5.75;72.60;98447.00;5045134;28;20032;-81
2021/05/03 03:52:57;;;;;;;11.50;6.85;;;;;;;5.76;72.43;98452.16;5039698;28;20034;-82
2021/05/03 03:55:23;;;;;;;11.20;5.88;;;;;;;5.79;71.57;98454.34;5045773;28;20022;-81
2021/05/03 03:57:48;;;;;;;10.10;6.57;;;;;;;5.77;71.18;98445.63;5048171;28;20116;-83
2021/05/03 04:00:14;;;;;;;10.57;6.25;;;;;;;5.79;71.96;98448.91;5048130;28;20094;-82
2021/05/03 04:02:40;;;;;;;10.43;5.75;;;;;;;5.82;71.57;98461.19;5042856;28;20025;-82
2021/05/03 04:05:28;;;;;;;9.30;6.03;;;;;;;5.84;71.94;98459.03;5045888;28;20021;-81
2021/05/03 04:21:22;;;;;;;12.07;7.65;;;;;;;5.92;70.65;98458.50;5037513;28;20560;-81
2021/05/03 04:26:32;;;;;;;9.05;5.00;;;;;;;5.96;70.64;98466.97;5044826;28;20036;-82
2021/05/03 04:28:58;;;;;;;8.38;4.80;;;;;;;5.99;69.78;98474.59;5045113;28;20017;-81
2021/05/03 04:31:23;;;;;;;15.07;4.72;;;;;;;6.01;69.76;98472.47;5042207;28;20105;-81
2021/05/03 04:33:50;;;;;;;7.05;3.78;;;;;;;6.02;69.56;98470.53;5045612;28;20385;-81
2021/05/03 04:36:16;;;;;;;8.50;4.47;;;;;;;6.04;70.02;98469.22;5036922;28;20128;-82
2021/05/03 04:38:41;;;;;;;7.20;3.58;;;;;;;6.09;69.01;98465.69;5042328;28;20112;-82
2021/05/03 04:41:09;;;;;;;5.25;3.35;;;;;;;6.11;68.75;98486.09;5052341;28;20024;-82
2021/05/03 04:43:35;;;;;;;5.13;3.13;;;;;;;6.14;68.48;98479.31;5044432;28;20094;-82
2021/05/03 04:46:00;;;;;;;7.35;3.28;;;;;;;6.18;68.67;98469.53;5039360;28;20112;-82
2021/05/03 04:48:27;;;;;;;5.28;3.25;;;;;;;6.20;68.21;98478.25;5044535;28;20101;-82
2021/05/03 04:50:54;;;;;;;5.75;3.67;;;;;;;6.23;68.00;98485.06;5049357;28;20115;-82
2021/05/03 04:53:19;;;;;;;7.60;3.40;;;;;;;6.25;67.77;98491.06;5049356;28;20036;-82
2021/05/03 04:55:45;;;;;;;5.95;3.42;;;;;;;6.25;66.72;98488.34;5040196;28;20055;-82
2021/05/03 04:58:10;;;;;;;5.35;3.28;;;;;;;6.25;67.42;98486.44;5061577;28;20029;-82
2021/05/03 05:00:36;;;;;;;5.75;3.67;;;;;;;6.30;66.83;98495.72;5048026;28;20452;-82
2021/05/03 05:03:01;;;;;;;6.65;3.90;;;;;;;6.33;67.17;98489.72;5046967;28;20068;-81
2021/05/03 05:05:28;;;;;;;4.72;3.75;;;;;;;6.37;67.01;98499.00;5040948;28;20036;-81
2021/05/03 05:07:54;;;;;;;4.10;2.92;;;;;;;6.36;66.29;98498.19;5042205;28;20109;-81
2021/05/03 05:10:20;;;;;;;5.05;3.00;;;;;;;6.37;66.24;98491.66;5044997;28;20690;-82
2021/05/03 05:12:45;;;;;;;5.03;2.83;;;;;;;6.43;66.81;98497.94;5044674;28;20026;-82
2021/05/03 05:15:10;;;;;;;4.00;2.75;;;;;;;6.48;66.44;98506.13;5044446;28;20044;-82
2021/05/03 05:17:37;;;;;;;3.35;2.75;;;;;;;6.47;65.67;98501.75;5038272;28;20041;-83
2021/05/03 05:20:04;;;;;;;4.13;2.38;;;;;;;6.46;65.55;98507.50;5043742;28;20033;-81
2021/05/03 05:22:30;;;;;;;6.32;3.50;;;;;;;6.44;64.29;98518.63;5050610;28;20095;-83
2021/05/03 05:24:55;;;;;;;6.75;3.20;;;;;;;6.45;65.30;98523.00;5049864;28;20503;-82
2021/05/03 05:27:21;;;;;;;7.20;3.30;;;;;;;6.48;64.72;98522.47;5041053;28;20036;-83
2021/05/03 05:29:46;;;;;;;4.97;3.08;;;;;;;6.46;63.71;98524.63;5040424;28;20025;-83
2021/05/03 05:32:11;;;;;;;5.93;3.60;;;;;;;6.42;63.96;98526.25;5043814;28;20038;-82
2021/05/03 05:34:37;;;;;;;6.43;3.90;;;;;;;6.40;64.13;98536.59;5046129;28;20025;-82
2021/05/03 05:37:02;;;;;;;4.82;3.35;;;;;;;6.36;63.68;98538.22;5041700;28;20097;-82
2021/05/03 05:39:27;;;;;;;4.07;2.20;;;;;;;6.35;64.09;98542.84;5042225;28;20484;-83
2021/05/03 05:41:53;;;;;;;31.10;8.77;;;;;;;6.36;64.09;98541.78;5052046;28;20021;-81
2021/05/03 05:44:18;;;;;;;15.55;4.53;;;;;;;6.38;64.59;98555.94;5046309;28;20025;-82
2021/05/03 05:46:44;;;;;;;12.45;5.07;;;;;;;6.40;63.75;98558.41;5039514;28;20033;-83
2021/05/03 05:49:11;;;;;;;4.28;2.92;;;;;;;6.32;62.28;98559.72;5042017;28;20072;-81
2021/05/03 05:51:38;;;;;;;8.77;3.60;;;;;;;6.23;62.36;98555.88;5051638;28;20021;-82
2021/05/03 05:54:04;;;;;;;30.63;8.55;;;;;;;6.17;62.67;98565.94;5041786;28;20474;-82
2021/05/03 05:56:29;;;;;;;27.85;7.82;;;;;;;6.13;62.07;98563.97;5044559;28;20021;-83
2021/05/03 05:58:54;;;;;;;10.15;4.00;;;;;;;6.09;62.63;98566.44;5043635;28;20029;-83
2021/05/03 06:01:22;;;;;;;32.95;7.95;;;;;;;6.05;62.59;98568.03;5048097;28;20033;-83
2021/05/03 06:03:47;;;;;;;40.47;9.70;;;;;;;6.03;63.56;98571.03;5048453;28;20070;-83
2021/05/03 06:06:12;;;;;;;6.78;4.35;;;;;;;6.03;63.18;98575.66;5048307;28;20447;-84
2021/05/03 06:08:38;;;;;;;13.05;4.57;;;;;;;6.03;63.09;98572.91;5039791;28;20057;-84
2021/05/03 06:11:03;;;;;;;7.72;4.28;;;;;;;6.09;62.98;98578.16;5052619;28;20033;-82
2021/05/03 06:13:28;;;;;;;8.20;5.13;;;;;;;6.13;63.41;98569.44;5043234;28;20021;-83
2021/05/03 06:15:54;;;;;;;7.72;4.55;;;;;;;6.24;63.51;98568.41;5044320;28;20429;-82
2021/05/03 06:18:20;;;;;;;15.52;9.02;;;;;;;6.33;63.02;98587.78;5046096;28;20068;-82
2021/05/03 06:20:45;;;;;;;6.00;4.07;;;;;;;6.37;62.98;98578.81;5048520;28;20032;-82
2021/05/03 06:23:12;;;;;;;12.15;6.13;;;;;;;6.42;62.96;98566.31;5039661;28;20099;-82
2021/05/03 06:25:38;;;;;;;6.40;4.22;;;;;;;6.49;62.19;98575.06;5047412;28;20018;-83
2021/05/03 06:28:04;;;;;;;7.70;4.28;;;;;;;6.54;62.79;98570.44;5043417;28;20075;-83
2021/05/03 06:30:29;;;;;;;4.75;3.67;;;;;;;6.61;62.31;98572.13;5049654;28;20025;-83
2021/05/03 06:32:55;;;;;;;4.88;2.88;;;;;;;6.65;61.63;98570.50;5049434;28;20025;-84
2021/05/03 06:35:22;;;;;;;4.53;3.00;;;;;;;6.72;61.66;98573.78;5047173;28;20139;-83
2021/05/03 06:37:47;;;;;;;11.40;4.22;;;;;;;6.79;61.11;98579.78;5042230;28;20025;-82
2021/05/03 06:40:13;;;;;;;3.45;2.60;;;;;;;6.94;61.39;98579.00;5044277;28;20079;-80
2021/05/03 06:42:40;;;;;;;5.35;2.95;;;;;;;7.09;61.22;98582.84;5047199;28;20024;-83
2021/05/03 06:45:06;;;;;;;19.52;5.88;;;;;;;7.23;61.12;98585.88;5044525;28;20024;-82
2021/05/03 06:47:32;;;;;;;10.15;4.35;;;;;;;7.36;60.63;98589.97;5046768;28;20466;-82
2021/05/03 06:49:57;;;;;;;4.50;2.92;;;;;;;7.36;59.46;98582.63;5053026;28;20018;-82
2021/05/03 06:52:23;;;;;;;13.10;4.93;;;;;;;7.37;59.15;98589.72;5052980;28;20053;-82
2021/05/03 06:54:50;;;;;;;23.45;5.55;;;;;;;7.46;58.59;98600.91;5050276;28;20080;-82
2021/05/03 06:57:17;;;;;;;6.40;2.45;;;;;;;7.49;57.97;98602.28;5044144;28;20049;-83
2021/05/03 06:59:43;;;;;;;4.15;2.20;;;;;;;7.49;55.85;98605.00;5055334;28;20057;-82
2021/05/03 07:02:11;;;;;;;6.50;2.00;;;;;;;7.53;57.12;98606.09;5042589;28;20033;-83
2021/05/03 07:04:37;;;;;;;15.73;4.18;;;;;;;7.57;56.25;98604.44;5047003;28;20025;-81
2021/05/03 07:07:03;;;;;;;2.97;1.67;;;;;;;7.63;54.62;98597.91;5048725;28;20506;-81
2021/05/03 07:09:29;;;;;;;3.63;1.73;;;;;;;7.69;54.67;98605.00;5040060;28;20108;-81
2021/05/03 07:11:56;;;;;;;6.97;2.05;;;;;;;7.72;54.27;98626.28;5043993;28;20401;-82
2021/05/03 07:14:21;;;;;;;6.50;2.53;;;;;;;7.68;53.27;98608.81;5042902;28;20040;-82
2021/05/03 07:16:48;;;;;;;17.70;4.63;;;;;;;7.66;53.85;98619.19;5046437;28;20041;-81
2021/05/03 07:19:13;;;;;;;15.07;3.40;;;;;;;7.70;55.22;98606.63;5044247;28;20495;-83
2021/05/03 07:21:39;;;;;;;6.75;2.10;;;;;;;7.72;54.21;98618.09;5046021;28;20029;-83
2021/05/03 07:24:05;;;;;;;8.98;2.80;;;;;;;7.82;54.11;98611.00;5045016;28;20029;-82
2021/05/03 07:26:31;;;;;;;11.88;3.28;;;;;;;7.92;54.61;98616.47;5044596;28;20108;-82
2021/05/03 07:28:56;;;;;;;6.07;2.60;;;;;;;8.03;54.42;98612.59;5045970;28;20109;-82
2021/05/03 07:31:22;;;;;;;8.18;2.30;;;;;;;7.99;53.18;98616.16;5039228;28;20033;-82
2021/05/03 07:33:47;;;;;;;12.50;3.40;;;;;;;8.01;53.70;98625.72;5048348;28;20048;-83
2021/05/03 07:36:12;;;;;;;6.70;3.42;;;;;;;8.08;52.71;98620.00;5039940;28;20021;-82
2021/05/03 07:38:38;;;;;;;6.22;2.15;;;;;;;8.12;52.63;98621.06;5040999;28;20442;-83
2021/05/03 07:41:04;;;;;;;6.10;2.05;;;;;;;8.10;52.60;98619.69;5043331;28;20544;-82
2021/05/03 07:43:30;;;;;;;5.55;2.10;;;;;;;8.08;52.99;98639.13;5048119;28;20033;-84
2021/05/03 07:45:55;;;;;;;3.83;2.08;;;;;;;8.05;52.99;98640.47;5044326;28;20032;-84
2021/05/03 07:48:22;;;;;;;4.45;2.05;;;;;;;8.01;52.55;98636.63;5057250;28;20094;-83
2021/05/03 07:50:47;;;;;;;6.50;2.40;;;;;;;8.08;53.00;98638.28;5045243;28;20044;-82
2021/05/03 07:53:13;;;;;;;5.30;1.70;;;;;;;8.11;53.23;98643.19;5042981;28;20037;-82
2021/05/03 07:55:38;;;;;;;10.40;4.28;;;;;;;8.13;52.93;98660.97;5048617;28;20024;-81
2021/05/03 07:58:04;;;;;;;5.43;1.83;;;;;;;8.13;52.49;98660.97;5047529;28;20037;-81
2021/05/03 08:00:30;;;;;;;5.40;1.80;;;;;;;8.05;51.87;98667.78;5043908;28;20044;-81
2021/05/03 08:02:56;;;;;;;4.35;1.58;;;;;;;8.05;52.53;98665.03;5054794;28;20029;-81
2021/05/03 08:05:23;;;;;;;8.85;2.55;;;;;;;8.10;51.97;98674.34;5050892;28;20164;-80
2021/05/03 08:07:48;;;;;;;4.38;1.75;;;;;;;8.10;52.05;98663.41;5046191;28;20029;-80
2021/05/03 08:10:14;;;;;;;6.13;2.33;;;;;;;8.09;52.01;98659.03;5047935;28;20033;-80
2021/05/03 08:12:39;;;;;;;5.03;1.92;;;;;;;8.07;52.22;98675.72;5052209;28;20037;-80
2021/05/03 08:15:13;;;;;;;4.38;1.95;;;;;;;8.07;51.84;98670.25;5049209;28;20027;-80
2021/05/03 08:17:41;;;;;;;9.80;3.20;;;;;;;8.10;52.63;98691.56;5051464;28;20489;-79
2021/05/03 08:20:08;;;;;;;7.47;2.60;;;;;;;8.15;51.26;98672.41;5050196;28;20032;-81
2021/05/03 08:22:33;;;;;;;22.88;7.65;;;;;;;8.23;52.51;98673.78;5051926;28;20074;-80
2021/05/03 08:24:59;;;;;;;25.50;10.30;;;;;;;8.32;51.94;98682.22;5051627;28;20424;-80
2021/05/03 08:27:24;;;;;;;22.95;7.47;;;;;;;8.40;51.58;98678.94;5049418;28;20477;-79
2021/05/03 08:29:50;;;;;;;15.43;7.40;;;;;;;8.46;52.07;98677.00;5052752;28;20110;-78
2021/05/03 08:32:16;;;;;;;8.27;3.90;;;;;;;8.45;52.20;98669.91;5051922;28;20033;-78
2021/05/03 08:34:41;;;;;;;13.48;5.40;;;;;;;8.44;53.19;98690.13;5052788;28;20024;-78
2021/05/03 08:37:07;;;;;;;51.45;16.15;;;;;;;8.40;52.54;98678.94;5052862;28;20469;-78
2021/05/03 08:39:32;;;;;;;20.20;9.25;;;;;;;8.42;53.17;98689.59;5052485;28;20036;-79
2021/05/03 08:41:59;;;;;;;8.82;3.60;;;;;;;8.52;52.35;98686.88;5052640;28;20064;-79
2021/05/03 08:44:27;;;;;;;13.05;4.95;;;;;;;8.63;52.89;98680.28;5050862;28;20059;-78
2021/05/03 08:46:53;;;;;;;11.27;4.10;;;;;;;8.83;51.38;98678.56;5052493;28;20028;-77
2021/05/03 08:49:27;;;;;;;30.48;12.45;;;;;;;8.86;50.06;98686.22;5052386;28;20025;-78
2021/05/03 08:52:12;;;;;;;13.15;5.30;;;;;;;8.75;48.38;98701.03;5051588;28;20112;-78
2021/05/03 08:54:42;;;;;;;26.27;8.27;;;;;;;8.73;48.41;98687.63;5051944;28;20032;-78
2021/05/03 08:57:08;;;;;;;;;;;;;;;8.79;48.19;98672.84;5054141;28;20549;-78
2021/05/03 08:59:35;;;;;;;8.85;2.55;;;;;;;8.92;48.47;98714.38;5052088;28;19919;-78
2021/05/03 09:02:02;;;;;;;6.93;3.20;;;;;;;8.99;46.75;98716.81;5052055;28;20024;-79
2021/05/03 09:04:28;;;;;;;6.57;3.55;;;;;;;9.09;46.48;98689.41;5052019;28;20055;-80
2021/05/03 09:07:06;;;;;;;9.98;5.10;;;;;;;9.32;47.82;98681.63;5052120;28;20029;-80
2021/05/03 09:09:35;;;;;;;20.23;5.65;;;;;;;9.51;45.07;98695.47;5050554;28;20023;-79
2021/05/03 09:12:19;;;;;;;12.80;4.43;;;;;;;9.44;44.43;98690.31;5052012;28;20021;-80
2021/05/03 09:15:00;;;;;;;3.92;1.48;;;;;;;9.33;45.73;98695.06;5048911;28;20117;-80
2021/05/03 09:17:34;;;;;;;9.93;3.83;;;;;;;9.24;46.18;98691.25;5048039;28;20056;-80
2021/05/03 09:20:14;;;;;;;4.18;2.40;;;;;;;9.17;46.97;98702.50;5047769;28;20048;-85
2021/05/03 09:25:21;;;;;;;12.43;4.05;;;;;;;9.37;46.38;98692.56;5047172;28;20029;-85
2021/05/03 09:27:46;;;;;;;7.18;2.85;;;;;;;9.51;46.70;98696.31;5050173;28;20040;-86
2021/05/03 09:30:30;;;;;;;17.33;5.90;;;;;;;9.58;46.07;98692.44;5048695;28;20021;-84
2021/05/03 09:33:13;;;;;;;3.42;2.35;;;;;;;9.52;43.81;98697.13;5052767;28;20063;-85
2021/05/03 09:35:48;;;;;;;4.85;1.85;;;;;;;9.55;45.01;98699.28;5032926;28;20036;-83
2021/05/03 09:38:43;;;;;;;2.85;1.40;;;;;;;9.56;43.62;98695.44;5018327;28;20144;-84
2021/05/03 09:41:27;;;;;;;8.35;3.42;;;;;;;9.69;44.48;98707.69;5025055;28;20076;-82
2021/05/03 09:44:02;;;;;;;4.90;2.97;;;;;;;9.72;44.42;98696.16;5024708;28;20025;-81
2021/05/03 09:46:38;;;;;;;10.00;3.80;;;;;;;9.71;44.38;98700.00;5030266;28;20040;-83
2021/05/03 09:49:16;;;;;;;5.65;2.17;;;;;;;9.72;43.10;98706.31;5059815;28;20788;-81
2021/05/03 09:51:42;;;;;;;8.82;4.70;;;;;;;9.62;42.50;98756.47;5028265;28;20022;-81
2021/05/03 09:54:15;;;;;;;6.20;3.33;;;;;;;9.48;44.07;98702.34;5026676;28;20033;-80
2021/05/03 09:56:48;;;;;;;16.80;7.43;;;;;;;9.38;44.44;98707.88;5034661;28;20399;-82
2021/05/03 09:59:30;;;;;;;9.82;4.97;;;;;;;9.31;45.19;98721.88;5016067;28;20034;-81
2021/05/03 10:02:03;;;;;;;9.52;4.00;;;;;;;9.16;43.78;98725.50;5022481;28;20047;-81
2021/05/03 10:04:29;;;;;;;4.60;3.10;;;;;;;8.94;45.17;98734.88;5024428;28;20071;-81
2021/05/03 10:06:55;;;;;;;5.90;4.00;;;;;;;8.69;47.96;98752.19;5025733;28;20053;-81
2021/05/03 10:09:21;;;;;;;6.60;3.33;;;;;;;8.46;48.90;98737.13;5040370;28;20037;-81
2021/05/03 10:11:47;;;;;;;3.05;2.35;;;;;;;8.44;49.11;98736.59;5031321;28;20091;-81
2021/05/03 10:14:13;;;;;;;9.18;6.22;;;;;;;8.50;49.02;98730.06;5057556;28;20437;-81
2021/05/03 10:16:39;;;;;;;8.98;5.53;;;;;;;8.65;48.26;98731.94;5028623;28;20041;-80
2021/05/03 10:19:06;;;;;;;12.57;7.13;;;;;;;8.88;48.54;98721.50;5017736;28;20037;-81
2021/05/03 10:21:31;;;;;;;17.83;13.13;;;;;;;9.04;49.55;98725.81;5022408;28;20673;-81
2021/05/03 10:23:57;;;;;;;17.83;11.55;;;;;;;9.23;47.80;98727.94;5022365;28;20029;-82
2021/05/03 10:26:25;;;;;;;8.02;5.55;;;;;;;9.29;46.61;98715.03;5032719;28;20029;-83
2021/05/03 10:28:55;;;;;;;5.45;3.05;;;;;;;9.39;46.37;98725.94;5029988;28;20501;-84
2021/05/03 10:31:21;;;;;;;;;;;;;;;9.53;46.14;98731.59;5027550;28;20060;-83
2021/05/03 10:33:47;;;;;;;5.38;3.17;;;;;;;9.61;45.32;98719.22;5025078;28;20784;-84
2021/05/03 10:36:32;;;;;;;5.55;3.42;;;;;;;9.72;45.34;98729.03;5030098;28;20116;-84
2021/05/03 10:38:58;;;;;;;7.03;2.80;;;;;;;9.80;43.83;98736.66;5020552;28;20688;-85
2021/05/03 10:41:28;;;;;;;7.22;4.13;;;;;;;9.95;43.86;98741.19;5031008;28;20028;-83
2021/05/03 10:44:09;;;;;;;3.83;2.28;;;;;;;10.14;43.38;98735.03;5019835;28;20437;-83
2021/05/03 10:51:40;;;;;;;6.85;5.18;;;;;;;10.05;43.15;98739.50;5025644;28;20037;-84
2021/05/03 10:54:24;;;;;;;4.55;2.97;;;;;;;10.00;43.15;98742.28;5025348;28;20474;-84
2021/05/03 10:56:51;;;;;;;6.45;3.70;;;;;;;9.96;43.00;98755.72;5024196;28;20029;-83
2021/05/03 10:59:17;;;;;;;8.23;3.03;;;;;;;9.95;43.51;98749.41;5028334;28;20115;-89
2021/05/03 11:01:51;;;;;;;6.32;2.97;;;;;;;10.02;44.11;98745.53;5028640;28;20555;-86
2021/05/03 11:04:17;;;;;;;8.90;3.83;;;;;;;10.06;43.91;98746.63;5021653;28;20029;-85
2021/05/03 11:06:42;;;;;;;7.60;2.95;;;;;;;10.14;44.60;98743.25;5025865;28;20021;-83
2021/05/03 11:09:31;;;;;;;3.60;2.45;;;;;;;10.15;44.21;98744.06;5030226;28;20108;-82
2021/05/03 11:12:06;;;;;;;6.60;2.75;;;;;;;10.15;44.88;98753.13;5025494;28;20048;-82
2021/05/03 11:14:37;;;;;;;3.75;2.40;;;;;;;10.18;44.75;98741.59;5030063;28;20536;-84
2021/05/03 11:17:03;;;;;;;4.35;2.17;;;;;;;10.30;45.04;98737.63;5031216;28;20886;-82
2021/05/03 11:20:12;;;;;;;5.40;2.50;;;;;;;10.45;41.80;98731.22;5028511;28;20033;-82
2021/05/03 11:23:08;;;;;;;3.20;1.80;;;;;;;10.61;41.81;98727.22;5022331;28;21379;-83
2021/05/03 11:25:36;;;;;;;3.28;1.73;;;;;;;10.68;41.24;98722.22;5019827;28;20256;-82
2021/05/03 11:28:14;;;;;;;2.97;2.33;;;;;;;10.74;40.93;98724.91;5027531;28;20044;-83
2021/05/03 11:30:44;;;;;;;3.80;1.67;;;;;;;10.78;40.64;98732.28;5027326;28;20071;-85
2021/05/03 11:33:16;;;;;;;3.63;1.77;;;;;;;10.68;39.90;98735.94;5034176;28;20021;-81
2021/05/03 11:35:54;;;;;;;4.15;2.50;;;;;;;10.74;41.43;98741.38;5035767;28;20025;-81
2021/05/03 11:38:27;;;;;;;5.57;2.33;;;;;;;10.70;40.45;98731.00;5041268;28;20033;-83
2021/05/03 11:41:47;;;;;;;3.80;3.08;;;;;;;10.67;40.37;98736.22;5044757;28;20021;-82
2021/05/03 11:46:32;;;;;;;6.43;3.30;;;;;;;10.31;40.30;98759.28;5021151;28;20099;-82
2021/05/03 11:49:19;;;;;;;4.18;2.45;;;;;;;10.09;39.85;98738.63;5027993;28;20417;-81
2021/05/03 11:51:51;;;;;;;6.70;3.20;;;;;;;10.03;41.38;98752.66;5025409;28;20973;-81
2021/05/03 11:54:31;;;;;;;5.85;2.53;;;;;;;10.01;41.53;98746.66;5026263;28;20043;-82
2021/05/03 11:57:07;;;;;;;;;;;;;;;10.02;41.00;98757.31;5026615;28;20059;-83
2021/05/03 11:59:33;;;;;;;3.80;2.05;;;;;;;9.98;40.34;98761.75;5031960;28;19913;-83
2021/05/03 12:02:00;;;;;;;4.85;2.38;;;;;;;9.95;40.73;98754.91;5039663;28;20022;-83
2021/05/03 12:04:43;;;;;;;4.38;2.47;;;;;;;10.07;42.14;98751.78;5023381;28;20030;-81
2021/05/03 12:07:22;;;;;;;5.45;2.83;;;;;;;10.37;41.97;98736.22;5025583;28;20028;-82
2021/05/03 12:10:04;;;;;;;6.75;3.42;;;;;;;10.76;41.52;98739.16;5033829;28;20028;-83